Twin Valley, Minnesota
Current Conditions -  °F | °C
As of 3:55 AM on Wednesday 26 Nov 2014 (Local Time) from K3N8 Reporting Station
Overcast Overcast  
Wind Chill: -1°   Ceiling: 8000
Heat Index: 14°   Visibility: 10mi
Dew Point: 10°   Wind: 14mph
Humidity: 86%   Direction: 360°N
Pressure: 30.14"   Gusts: NA
Location:  47.26°N, 96.26°W
Report Text: K3N8 260955Z AUTO 36012KT 10SM OVC080 M10/M12 A3014 RMK AO2 T11021121
Loading
Personal Weather Stations






























Interactive Weather Map New forecast layout! Learn more

10-Day Weather Forecast

Advertisements
Track Severe Weather on mobile